createdAt,value
2023-04-15T00:02:27.940Z,5.40
2023-04-15T00:04:57.346Z,5.30
2023-04-15T00:07:25.298Z,5.60
2023-04-15T00:09:55.197Z,5.57
2023-04-15T00:12:23.164Z,4.53
2023-04-15T00:14:51.168Z,4.70
2023-04-15T00:17:19.312Z,4.63
2023-04-15T00:19:47.384Z,4.73
2023-04-15T00:22:17.196Z,4.20
2023-04-15T00:24:45.151Z,4.70
2023-04-15T00:27:13.088Z,4.90
2023-04-15T00:29:41.273Z,4.80
2023-04-15T00:32:09.183Z,4.70
2023-04-15T00:34:37.226Z,4.40
2023-04-15T00:37:05.188Z,4.73
2023-04-15T00:39:34.518Z,4.10
2023-04-15T00:42:03.021Z,4.83
2023-04-15T00:44:30.965Z,4.30
2023-04-15T00:46:59.568Z,4.43
2023-04-15T00:49:28.896Z,4.50
2023-04-15T00:51:57.062Z,4.43
2023-04-15T00:54:25.177Z,4.57
2023-04-15T00:56:54.491Z,4.33
2023-04-15T00:59:22.949Z,4.47
2023-04-15T01:01:51.807Z,4.33
2023-04-15T01:04:20.029Z,4.60
2023-04-15T01:06:47.999Z,4.30
2023-04-15T01:09:16.290Z,4.20
2023-04-15T01:11:44.708Z,4.70
2023-04-15T01:14:14.639Z,5.27
2023-04-15T01:16:42.579Z,4.73
2023-04-15T01:19:12.505Z,5.60
2023-04-15T01:21:40.939Z,5.10
2023-04-15T01:24:11.915Z,5.40
2023-04-15T01:26:42.413Z,5.10
2023-04-15T01:29:11.588Z,5.37
2023-04-15T01:31:39.630Z,4.97
2023-04-15T01:34:07.728Z,5.33
2023-04-15T01:36:35.746Z,5.20
2023-04-15T01:39:03.767Z,5.97
2023-04-15T01:41:31.725Z,5.27
2023-04-15T01:44:01.606Z,5.30
2023-04-15T01:46:29.675Z,4.70
2023-04-15T01:48:57.689Z,5.40
2023-04-15T01:51:25.630Z,5.40
2023-04-15T01:53:53.580Z,5.00
2023-04-15T01:56:21.547Z,4.67
2023-04-15T01:58:49.612Z,5.43
2023-04-15T02:01:19.668Z,5.70
2023-04-15T02:03:48.540Z,5.50
2023-04-15T02:06:16.655Z,6.23
2023-04-15T02:08:44.578Z,5.20
2023-04-15T02:11:12.523Z,5.37
2023-04-15T02:13:40.614Z,6.00
2023-04-15T02:16:18.794Z,5.63
2023-04-15T02:18:47.392Z,6.07
2023-04-15T02:21:15.596Z,5.40
2023-04-15T02:23:44.022Z,6.90
2023-04-15T02:26:11.960Z,6.13
2023-04-15T02:28:39.914Z,7.40
2023-04-15T02:31:09.506Z,7.00
2023-04-15T02:33:38.795Z,6.93
2023-04-15T02:36:07.491Z,6.93
2023-04-15T02:38:35.494Z,7.40
2023-04-15T02:41:03.428Z,7.13
2023-04-15T02:43:31.607Z,8.00
2023-04-15T02:45:59.574Z,7.37
2023-04-15T02:48:27.518Z,7.83
2023-04-15T02:51:12.620Z,8.43
2023-04-15T02:53:41.510Z,7.83
2023-04-15T02:56:09.611Z,8.77
2023-04-15T02:58:37.680Z,8.80
2023-04-15T03:01:05.679Z,8.50
2023-04-15T03:03:33.765Z,8.30
2023-04-15T03:06:03.103Z,8.50
2023-04-15T03:08:31.446Z,7.57
2023-04-15T03:11:00.870Z,8.37
2023-04-15T03:13:29.069Z,8.27
2023-04-15T03:15:57.054Z,8.20
2023-04-15T03:18:25.028Z,8.00
2023-04-15T03:20:52.994Z,8.27
2023-04-15T03:23:22.286Z,8.00
2023-04-15T03:25:50.287Z,7.80
2023-04-15T03:28:18.220Z,9.07
2023-04-15T03:30:46.209Z,9.20
2023-04-15T03:33:14.155Z,8.77
2023-04-15T03:35:42.048Z,8.00
2023-04-15T03:38:10.061Z,8.47
2023-04-15T03:40:40.582Z,8.80
2023-04-15T03:43:08.526Z,8.60
2023-04-15T03:45:36.648Z,9.10
2023-04-15T03:48:16.761Z,9.47
2023-04-15T03:50:46.040Z,9.23
2023-04-15T03:53:14.023Z,9.03
2023-04-15T03:55:43.568Z,9.77
2023-04-15T03:58:12.900Z,9.17
2023-04-15T04:00:41.414Z,9.30
2023-04-15T04:03:09.709Z,10.43
2023-04-15T04:05:38.987Z,10.37
2023-04-15T04:08:07.464Z,10.20
2023-04-15T04:10:35.426Z,10.03
2023-04-15T04:13:04.755Z,10.60
2023-04-15T04:15:32.700Z,11.83
2023-04-15T04:18:00.772Z,10.20
2023-04-15T04:20:28.713Z,10.90
2023-04-15T04:22:56.613Z,11.47
2023-04-15T04:25:24.607Z,10.70
2023-04-15T04:27:52.549Z,12.00
2023-04-15T04:30:22.143Z,11.80
2023-04-15T04:32:51.549Z,12.10
2023-04-15T04:35:19.568Z,13.17
2023-04-15T04:37:47.495Z,12.67
2023-04-15T04:40:15.597Z,12.50
2023-04-15T04:42:43.540Z,14.07
2023-04-15T04:45:11.966Z,13.40
2023-04-15T04:47:41.313Z,14.57
2023-04-15T04:50:10.302Z,16.10
2023-04-15T04:52:38.224Z,13.90
2023-04-15T04:55:06.896Z,15.40
2023-04-15T04:57:35.831Z,14.77
2023-04-15T05:00:04.991Z,16.70
2023-04-15T05:02:33.313Z,16.20
2023-04-15T05:05:02.706Z,16.93
2023-04-15T05:07:30.663Z,17.23
2023-04-15T05:09:58.600Z,17.50
2023-04-15T05:12:26.615Z,16.20
2023-04-15T05:14:54.529Z,17.23
2023-04-15T05:17:22.549Z,18.40
2023-04-15T05:19:50.601Z,19.17
2023-04-15T05:22:19.907Z,18.20
2023-04-15T05:24:47.825Z,18.13
2023-04-15T05:27:15.795Z,19.83
2023-04-15T05:29:43.733Z,18.50
2023-04-15T05:32:12.037Z,19.37
2023-04-15T05:34:39.968Z,19.53
2023-04-15T05:37:07.929Z,18.43
2023-04-15T05:39:37.244Z,18.90
2023-04-15T05:42:05.982Z,18.97
2023-04-15T05:44:34.077Z,18.30
2023-04-15T05:47:03.468Z,18.97
2023-04-15T05:49:33.634Z,18.80
2023-04-15T05:52:01.568Z,18.40
2023-04-15T05:54:29.506Z,18.40
2023-04-15T05:56:58.942Z,19.47
2023-04-15T05:59:27.153Z,20.03
2023-04-15T06:01:55.194Z,20.07
2023-04-15T06:04:23.254Z,20.07
2023-04-15T06:06:51.289Z,19.67
2023-04-15T06:09:19.190Z,20.50
2023-04-15T06:11:47.129Z,19.30
2023-04-15T06:14:16.917Z,20.00
2023-04-15T06:16:44.874Z,19.37
2023-04-15T06:19:14.299Z,20.70
2023-04-15T06:21:42.861Z,21.53
2023-04-15T06:24:10.909Z,21.77
2023-04-15T06:26:38.874Z,21.63
2023-04-15T06:29:06.892Z,20.77
2023-04-15T06:31:36.264Z,22.37
2023-04-15T06:34:04.233Z,21.73
2023-04-15T06:36:32.389Z,22.07
2023-04-15T06:39:01.456Z,21.90
2023-04-15T06:41:29.630Z,24.40
2023-04-15T06:43:57.653Z,23.53
2023-04-15T06:46:26.024Z,23.93
2023-04-15T06:48:55.379Z,24.87
2023-04-15T06:51:26.121Z,26.00
2023-04-15T06:53:54.695Z,27.60
2023-04-15T06:56:23.274Z,25.80
2023-04-15T06:58:51.210Z,25.77
2023-04-15T07:01:19.190Z,27.17
2023-04-15T07:03:47.320Z,24.33
2023-04-15T07:06:17.013Z,25.57
2023-04-15T07:08:45.014Z,28.27
2023-04-15T07:11:13.095Z,25.87
2023-04-15T07:13:41.059Z,26.87
2023-04-15T07:16:09.005Z,26.63
2023-04-15T07:18:36.947Z,26.53
2023-04-15T07:21:05.528Z,27.53
2023-04-15T07:23:34.846Z,26.00
2023-04-15T07:26:02.811Z,27.10
2023-04-15T07:28:31.536Z,27.70
2023-04-15T07:31:01.188Z,25.97
2023-04-15T07:33:29.357Z,27.80
2023-04-15T07:35:57.334Z,27.40
2023-04-15T07:38:25.278Z,28.70
2023-04-15T07:40:54.643Z,28.00
2023-04-15T07:43:22.664Z,30.53
2023-04-15T07:45:50.658Z,28.17
2023-04-15T07:48:18.630Z,28.57
2023-04-15T07:50:46.669Z,28.87
2023-04-15T07:53:14.602Z,29.10
2023-04-15T07:55:42.609Z,28.20
2023-04-15T07:58:11.912Z,28.97
2023-04-15T08:00:40.152Z,28.20
2023-04-15T08:03:08.348Z,28.67
2023-04-15T08:05:36.590Z,29.40
2023-04-15T08:08:04.550Z,29.27
2023-04-15T08:10:32.613Z,30.03
2023-04-15T08:13:00.969Z,27.77
2023-04-15T08:15:31.391Z,27.40
2023-04-15T08:18:00.694Z,29.90
2023-04-15T08:20:34.312Z,28.57
2023-04-15T08:23:02.295Z,30.07
2023-04-15T08:25:30.352Z,29.00
2023-04-15T08:27:58.312Z,28.93
2023-04-15T08:30:26.250Z,29.23
2023-04-15T08:32:55.603Z,28.10
2023-04-15T08:35:23.876Z,28.20
2023-04-15T08:37:52.216Z,28.60
2023-04-15T08:40:20.550Z,29.93
2023-04-15T08:42:52.519Z,29.00
2023-04-15T08:45:21.851Z,29.90
2023-04-15T08:47:54.770Z,28.57
2023-04-15T08:50:25.331Z,29.17
2023-04-15T08:52:55.805Z,29.90
2023-04-15T08:55:24.686Z,29.03
2023-04-15T08:57:52.707Z,28.10
2023-04-15T09:00:21.057Z,30.00
2023-04-15T09:02:49.115Z,28.27
2023-04-15T09:05:17.572Z,29.50
2023-04-15T09:07:46.956Z,28.87
2023-04-15T09:10:15.100Z,26.43
2023-04-15T09:12:43.044Z,27.60
2023-04-15T09:15:13.725Z,28.97
2023-04-15T09:17:44.584Z,28.70
2023-04-15T09:20:14.024Z,29.47
2023-04-15T09:22:42.239Z,29.90
2023-04-15T09:25:31.197Z,30.23
2023-04-15T09:28:02.336Z,29.80
2023-04-15T09:30:30.680Z,28.23
2023-04-15T09:33:00.262Z,30.77
2023-04-15T09:35:29.051Z,28.20
2023-04-15T09:38:05.257Z,28.30
2023-04-15T09:40:36.392Z,28.50
2023-04-15T09:43:05.178Z,29.70
2023-04-15T09:45:34.298Z,27.60
2023-04-15T09:48:20.818Z,28.17
2023-04-15T09:50:50.283Z,26.70
2023-04-15T09:53:20.091Z,27.57
2023-04-15T09:55:51.623Z,27.00
2023-04-15T09:58:20.432Z,28.57
2023-04-15T10:00:49.574Z,27.43
2023-04-15T10:03:21.860Z,27.00
2023-04-15T10:05:51.720Z,25.67
2023-04-15T10:08:21.591Z,26.07
2023-04-15T10:10:51.851Z,26.73
2023-04-15T10:13:22.273Z,27.20
2023-04-15T10:15:53.482Z,27.03
2023-04-15T10:18:22.590Z,25.80
2023-04-15T10:20:51.176Z,25.90
2023-04-15T10:23:20.482Z,26.07
2023-04-15T10:25:50.587Z,26.10
2023-04-15T10:28:18.686Z,25.70
2023-04-15T10:30:47.967Z,25.30
2023-04-15T10:33:17.238Z,23.93
2023-04-15T10:35:46.352Z,25.50
2023-04-15T10:38:33.690Z,24.20
2023-04-15T10:41:18.048Z,23.60
2023-04-15T10:43:51.451Z,24.97
2023-04-15T10:46:21.845Z,24.00
2023-04-15T10:48:51.577Z,23.63
2023-04-15T10:51:30.398Z,19.83
2023-04-15T10:53:59.960Z,19.70
2023-04-15T10:56:31.590Z,19.13
2023-04-15T10:59:01.726Z,18.70
2023-04-15T11:01:56.600Z,16.70
2023-04-15T11:04:55.966Z,14.90
2023-04-15T11:07:41.867Z,14.60
2023-04-15T11:10:55.427Z,14.37
2023-04-15T11:13:32.995Z,14.67
2023-04-15T11:16:02.548Z,15.23
2023-04-15T11:18:32.988Z,14.30
2023-04-15T11:21:03.439Z,13.00
2023-04-15T11:23:34.127Z,13.10
2023-04-15T11:26:05.470Z,13.63
2023-04-15T11:28:37.461Z,13.60
2023-04-15T11:31:11.835Z,13.00
2023-04-15T11:33:46.198Z,14.47
2023-04-15T11:36:14.290Z,14.50
2023-04-15T11:38:45.069Z,14.07
2023-04-15T11:41:13.075Z,13.83
2023-04-15T11:43:42.501Z,13.67
2023-04-15T11:46:10.603Z,13.10
2023-04-15T11:48:42.790Z,12.50
2023-04-15T11:51:10.897Z,12.00
2023-04-15T11:53:41.197Z,12.20
2023-04-15T11:56:10.549Z,12.10
2023-04-15T11:58:39.483Z,13.50
2023-04-15T12:01:08.849Z,12.10
2023-04-15T12:03:41.493Z,12.30
2023-04-15T12:06:12.757Z,12.53
2023-04-15T12:08:52.652Z,13.60
2023-04-15T12:11:21.575Z,13.57
2023-04-15T12:13:51.239Z,13.70
2023-04-15T12:16:21.133Z,12.73
2023-04-15T12:18:52.050Z,14.00
2023-04-15T12:21:20.944Z,13.70
2023-04-15T12:23:52.895Z,13.20
2023-04-15T12:26:28.270Z,13.87
2023-04-15T12:28:56.684Z,12.70
2023-04-15T12:31:26.065Z,12.90
2023-04-15T12:33:56.432Z,12.90
2023-04-15T12:36:24.752Z,12.67
2023-04-15T12:38:52.696Z,13.03
2023-04-15T12:41:21.800Z,12.27
2023-04-15T12:43:49.711Z,12.87
2023-04-15T12:46:17.797Z,13.03
2023-04-15T12:48:47.310Z,13.87
2023-04-15T12:51:15.595Z,13.53
2023-04-15T12:53:43.521Z,13.30
2023-04-15T12:56:11.517Z,13.17
2023-04-15T12:58:39.420Z,12.80
2023-04-15T13:01:07.544Z,14.10
2023-04-15T13:03:35.726Z,13.43
2023-04-15T13:06:05.982Z,13.13
2023-04-15T13:08:34.777Z,13.87
2023-04-15T13:11:02.934Z,14.33
2023-04-15T13:13:31.932Z,13.93
2023-04-15T13:15:59.931Z,12.87
2023-04-15T13:18:28.128Z,12.63
2023-04-15T13:20:56.683Z,12.10
2023-04-15T13:23:25.942Z,11.70
2023-04-15T13:25:53.925Z,12.37
2023-04-15T13:28:22.346Z,12.13
2023-04-15T13:30:50.487Z,12.10
2023-04-15T13:33:18.678Z,12.27
2023-04-15T13:35:46.597Z,12.13
2023-04-15T13:38:14.524Z,12.63
2023-04-15T13:40:43.823Z,11.40
2023-04-15T13:43:12.168Z,12.43
2023-04-15T13:45:40.346Z,12.80
2023-04-15T13:48:08.526Z,10.53
2023-04-15T13:50:36.561Z,11.13
2023-04-15T13:53:04.554Z,10.93
2023-04-15T13:55:34.951Z,10.47
2023-04-15T13:58:04.276Z,10.23
2023-04-15T14:00:32.248Z,9.80
2023-04-15T14:03:00.355Z,9.63
2023-04-15T14:05:28.440Z,9.57
2023-04-15T14:07:56.438Z,10.17
2023-04-15T14:10:24.362Z,8.67
2023-04-15T14:12:52.346Z,9.50
2023-04-15T14:15:22.755Z,9.43
2023-04-15T14:17:51.016Z,9.83
2023-04-15T14:20:19.122Z,10.07
2023-04-15T14:22:47.061Z,9.40
2023-04-15T14:25:20.179Z,9.27
2023-04-15T14:27:58.763Z,9.70
2023-04-15T14:30:28.082Z,9.90
2023-04-15T14:32:56.117Z,10.30
2023-04-15T14:35:26.516Z,10.47
2023-04-15T14:37:54.699Z,11.40
2023-04-15T14:40:22.798Z,10.73
2023-04-15T14:42:50.937Z,10.63
2023-04-15T14:45:18.972Z,9.87
2023-04-15T14:47:48.685Z,10.03
2023-04-15T14:50:16.731Z,10.40
2023-04-15T14:52:44.675Z,9.60
2023-04-15T14:55:13.850Z,9.30
2023-04-15T14:57:43.302Z,9.77
2023-04-15T15:00:15.869Z,9.33
2023-04-15T15:02:44.386Z,8.70
2023-04-15T15:05:13.924Z,9.80
2023-04-15T15:07:42.123Z,9.23
2023-04-15T15:10:10.401Z,10.10
2023-04-15T15:12:38.379Z,10.80
2023-04-15T15:15:15.464Z,9.73
2023-04-15T15:17:44.020Z,10.63
2023-04-15T15:20:13.540Z,9.97
2023-04-15T15:22:41.500Z,10.53
2023-04-15T15:25:09.605Z,9.20
2023-04-15T15:27:38.406Z,9.87
2023-04-15T15:30:07.486Z,10.13
2023-04-15T15:32:35.509Z,10.57
2023-04-15T15:35:03.694Z,10.40
2023-04-15T15:37:33.098Z,10.13
2023-04-15T15:40:01.550Z,10.17
2023-04-15T15:42:32.849Z,10.50
2023-04-15T15:45:02.153Z,11.90
2023-04-15T15:47:30.265Z,14.27
2023-04-15T15:49:58.320Z,11.70
2023-04-15T15:52:26.270Z,11.77
2023-04-15T15:54:55.678Z,12.07
2023-04-15T15:57:24.745Z,12.17
2023-04-15T16:00:04.947Z,11.07
2023-04-15T16:03:04.149Z,11.57
2023-04-15T16:05:26.170Z,11.80
2023-04-15T16:07:54.235Z,11.73
2023-04-15T16:10:23.568Z,11.93
2023-04-15T16:12:51.525Z,12.67
2023-04-15T16:15:19.633Z,12.10
2023-04-15T16:17:47.660Z,12.43
2023-04-15T16:20:16.835Z,13.73
2023-04-15T16:22:45.006Z,14.63
2023-04-15T16:25:12.996Z,13.93
2023-04-15T16:27:57.235Z,13.13
2023-04-15T16:30:27.297Z,13.40
2023-04-15T16:32:55.345Z,14.23
2023-04-15T16:35:23.305Z,14.33
2023-04-15T16:37:51.231Z,14.37
2023-04-15T16:40:19.222Z,15.00
2023-04-15T16:42:48.710Z,14.23
2023-04-15T16:45:18.698Z,14.20
2023-04-15T16:47:47.864Z,15.17
2023-04-15T16:50:15.857Z,14.10
2023-04-15T16:52:43.801Z,15.10
2023-04-15T16:55:11.810Z,16.00
2023-04-15T16:58:01.220Z,15.83
2023-04-15T17:00:29.403Z,15.70
2023-04-15T17:02:57.809Z,15.93
2023-04-15T17:05:27.351Z,15.73
2023-04-15T17:07:55.844Z,16.80
2023-04-15T17:10:24.100Z,17.13
2023-04-15T17:12:52.536Z,16.60
2023-04-15T17:15:20.916Z,16.20
2023-04-15T17:17:50.395Z,17.30
2023-04-15T17:20:18.464Z,17.20
2023-04-15T17:22:46.753Z,17.93
2023-04-15T17:25:15.191Z,18.03
2023-04-15T17:27:43.096Z,18.17
2023-04-15T17:30:11.695Z,17.60
2023-04-15T17:32:40.222Z,18.57
2023-04-15T17:35:10.841Z,17.27
2023-04-15T17:37:39.044Z,17.60
2023-04-15T17:40:09.025Z,17.60
2023-04-15T17:42:37.123Z,17.50
2023-04-15T17:45:05.578Z,17.60
2023-04-15T17:47:33.546Z,17.53
2023-04-15T17:50:01.483Z,17.23
2023-04-15T17:52:30.837Z,18.90
2023-04-15T17:54:58.735Z,18.00
2023-04-15T17:57:26.817Z,18.47
2023-04-15T17:59:54.809Z,18.53
2023-04-15T18:02:22.915Z,19.00
2023-04-15T18:04:51.130Z,17.97
2023-04-15T18:07:19.197Z,19.17
2023-04-15T18:09:50.367Z,19.43
2023-04-15T18:12:20.565Z,18.40
2023-04-15T18:14:48.546Z,19.23
2023-04-15T18:17:16.462Z,17.70
2023-04-15T18:19:45.976Z,18.10
2023-04-15T18:22:13.927Z,19.83
2023-04-15T18:24:43.178Z,20.30
2023-04-15T18:27:12.432Z,20.10
2023-04-15T18:29:40.450Z,19.40
2023-04-15T18:32:08.411Z,19.13
2023-04-15T18:34:36.448Z,19.40
2023-04-15T18:37:05.302Z,18.00
2023-04-15T18:39:33.377Z,19.80
2023-04-15T18:42:01.856Z,18.70
2023-04-15T18:44:31.346Z,18.73
2023-04-15T18:46:59.457Z,19.47
2023-04-15T18:49:27.463Z,20.27
2023-04-15T18:51:55.538Z,18.20
2023-04-15T18:54:23.442Z,18.93
2023-04-15T18:56:52.019Z,18.40
2023-04-15T18:59:30.028Z,18.37
2023-04-15T19:02:01.333Z,16.97
2023-04-15T19:04:29.704Z,18.77
2023-04-15T19:06:58.944Z,18.27
2023-04-15T19:09:27.390Z,18.87
2023-04-15T19:11:56.748Z,18.33
2023-04-15T19:14:24.753Z,17.50
2023-04-15T19:16:52.797Z,19.40
2023-04-15T19:19:22.196Z,17.83
2023-04-15T19:21:50.425Z,18.17
2023-04-15T19:24:18.754Z,18.03
2023-04-15T19:26:49.637Z,18.13
2023-04-15T19:29:17.752Z,17.37
2023-04-15T19:31:45.782Z,17.73
2023-04-15T19:34:13.814Z,16.70
2023-04-15T19:36:43.503Z,17.17
2023-04-15T19:39:11.668Z,17.23
2023-04-15T19:41:39.738Z,16.40
2023-04-15T19:44:08.027Z,16.80
2023-04-15T19:46:35.982Z,17.10
2023-04-15T19:49:04.234Z,17.43
2023-04-15T19:51:32.428Z,16.50
2023-04-15T19:54:01.778Z,17.50
2023-04-15T19:56:31.666Z,17.10
2023-04-15T19:59:01.788Z,16.90
2023-04-15T20:01:29.852Z,17.13
2023-04-15T20:03:57.902Z,18.50
2023-04-15T20:06:26.696Z,16.30
2023-04-15T20:08:54.656Z,17.17
2023-04-15T20:12:44.856Z,17.10
2023-04-15T20:14:17.472Z,16.70
2023-04-15T20:16:45.444Z,16.47
2023-04-15T20:19:13.837Z,16.73
2023-04-15T20:21:41.772Z,16.47
2023-04-15T20:24:10.067Z,17.77
2023-04-15T20:26:39.365Z,17.17
2023-04-15T20:29:07.663Z,16.20
2023-04-15T20:31:36.153Z,17.23
2023-04-15T20:34:04.106Z,16.93
2023-04-15T20:36:32.688Z,16.20
2023-04-15T20:39:00.650Z,17.60
2023-04-15T20:41:28.681Z,16.93
2023-04-15T20:43:57.962Z,15.63
2023-04-15T20:46:27.368Z,16.53
2023-04-15T20:48:56.076Z,16.87
2023-04-15T20:51:24.007Z,17.20
2023-04-15T20:53:52.233Z,17.70
2023-04-15T20:56:20.182Z,17.53
2023-04-15T20:58:48.093Z,17.83
2023-04-15T21:01:17.426Z,17.23
2023-04-15T21:03:45.649Z,17.17
2023-04-15T21:06:13.712Z,17.40
2023-04-15T21:08:41.746Z,16.80
2023-04-15T21:11:09.658Z,17.30
2023-04-15T21:13:37.631Z,18.03
2023-04-15T21:16:06.228Z,18.27
2023-04-15T21:18:35.644Z,17.37
2023-04-15T21:21:04.001Z,17.13
2023-04-15T21:23:35.792Z,17.80
2023-04-15T21:26:03.903Z,17.40
2023-04-15T21:28:31.842Z,18.50
2023-04-15T21:31:00.276Z,17.00
2023-04-15T21:33:28.398Z,18.13
2023-04-15T21:35:57.710Z,18.70
2023-04-15T21:38:25.652Z,18.10
2023-04-15T21:40:53.667Z,17.47
2023-04-15T21:43:22.834Z,17.67
2023-04-15T21:46:20.723Z,18.93
2023-04-15T21:48:38.656Z,17.60
2023-04-15T21:51:08.977Z,17.80
2023-04-15T21:53:36.865Z,18.93
2023-04-15T21:56:08.949Z,17.00
2023-04-15T21:58:37.311Z,17.50
2023-04-15T22:01:05.570Z,18.60
2023-04-15T22:03:35.141Z,17.73
2023-04-15T22:06:03.886Z,18.47
2023-04-15T22:08:41.638Z,17.10
2023-04-15T22:11:22.997Z,17.47
2023-04-15T22:13:50.992Z,18.20
2023-04-15T22:16:18.979Z,18.63
2023-04-15T22:18:46.963Z,18.73
2023-04-15T22:21:14.921Z,18.70
2023-04-15T22:23:46.929Z,18.00
2023-04-15T22:26:14.965Z,19.13
2023-04-15T22:28:43.157Z,18.23
2023-04-15T22:31:11.324Z,19.07
2023-04-15T22:33:39.693Z,18.20
2023-04-15T22:36:07.668Z,18.30
2023-04-15T22:38:35.657Z,17.33
2023-04-15T22:41:04.982Z,17.77
2023-04-15T22:43:32.863Z,18.00
2023-04-15T22:46:01.403Z,18.73
2023-04-15T22:48:29.382Z,18.20
2023-04-15T22:50:57.292Z,16.77
2023-04-15T22:53:25.219Z,17.30
2023-04-15T22:55:53.966Z,17.07
2023-04-15T22:58:23.384Z,18.00
2023-04-15T23:00:51.264Z,18.23
2023-04-15T23:03:19.223Z,18.00
2023-04-15T23:05:47.288Z,18.60
2023-04-15T23:08:15.192Z,20.10
2023-04-15T23:10:44.586Z,18.40
2023-04-15T23:13:12.508Z,19.80
2023-04-15T23:15:41.797Z,19.23
2023-04-15T23:18:09.838Z,19.57
2023-04-15T23:20:37.885Z,20.63
2023-04-15T23:23:05.904Z,19.33
2023-04-15T23:25:33.824Z,20.40
2023-04-15T23:28:01.752Z,19.37
2023-04-15T23:30:29.699Z,19.20
2023-04-15T23:32:58.975Z,21.67
2023-04-15T23:35:27.187Z,20.07
2023-04-15T23:37:55.097Z,20.37
2023-04-15T23:40:23.081Z,18.90
2023-04-15T23:42:51.770Z,17.70
2023-04-15T23:45:19.688Z,19.87
2023-04-15T23:47:47.747Z,18.30
2023-04-15T23:50:17.124Z,18.23
2023-04-15T23:52:45.062Z,18.20
2023-04-15T23:55:12.975Z,19.40
2023-04-15T23:57:41.465Z,19.10
